Time;durP1;ratioP1;P1;durP2;ratioP2;P2;SDS_P1;SDS_P2;PMS_P1;PMS_P2;Temp;Humidity;BMP_temperature;BMP_pressure;BME280_temperature;BME280_humidity;BME280_pressure;Samples;Min_cycle;Max_cycle;Signal;HPM_P1;HPM_P2
2023/09/08 00:02:09;;;;;;;3.45;2.00;;;19.80;99.90;;;;;;4861064;29;20482;-68
2023/09/08 00:04:35;;;;;;;4.90;2.40;;;19.80;99.90;;;;;;4861268;29;20045;-68
2023/09/08 00:07:01;;;;;;;4.78;2.20;;;19.80;99.90;;;;;;4861369;29;20037;-68
2023/09/08 00:09:27;;;;;;;4.38;1.92;;;19.70;99.90;;;;;;4861082;29;20096;-68
2023/09/08 00:11:54;;;;;;;5.20;2.60;;;19.80;99.90;;;;;;4860662;29;20041;-68
2023/09/08 00:14:20;;;;;;;9.10;2.58;;;19.80;99.90;;;;;;4859927;29;20093;-68
2023/09/08 00:16:46;;;;;;;3.97;2.50;;;19.80;99.90;;;;;;4859697;29;20025;-68
2023/09/08 00:19:12;;;;;;;4.10;2.72;;;19.80;99.90;;;;;;4859642;29;20032;-68
2023/09/08 00:21:38;;;;;;;6.28;2.60;;;19.80;99.90;;;;;;4859315;29;20040;-68
2023/09/08 00:24:07;;;;;;;3.58;2.10;;;19.90;99.90;;;;;;4860643;29;20037;-68
2023/09/08 00:26:33;;;;;;;5.13;2.60;;;19.90;99.90;;;;;;4860770;29;20037;-68
2023/09/08 00:28:58;;;;;;;3.63;2.08;;;19.90;99.90;;;;;;4860545;29;20033;-69
2023/09/08 00:31:24;;;;;;;5.72;2.67;;;19.80;99.90;;;;;;4859096;29;20081;-69
2023/09/08 00:33:50;;;;;;;7.57;2.85;;;19.70;99.90;;;;;;4859358;29;20398;-69
2023/09/08 00:36:16;;;;;;;4.40;2.20;;;19.70;99.90;;;;;;4859350;29;20040;-68
2023/09/08 00:38:41;;;;;;;6.55;2.47;;;19.60;99.90;;;;;;4860738;29;20437;-68
2023/09/08 00:41:07;;;;;;;4.22;2.50;;;19.50;99.90;;;;;;4860065;29;20061;-68
2023/09/08 00:43:33;;;;;;;5.78;2.60;;;19.40;99.90;;;;;;4860287;29;20045;-68
2023/09/08 00:46:02;;;;;;;4.70;2.55;;;19.40;99.90;;;;;;4860240;29;20045;-68
2023/09/08 00:48:29;;;;;;;4.63;2.78;;;19.40;99.90;;;;;;4858895;29;20067;-68
2023/09/08 00:50:55;;;;;;;5.10;2.60;;;19.30;99.90;;;;;;4873526;29;20032;-68
2023/09/08 00:53:22;;;;;;;10.30;2.75;;;19.30;99.90;;;;;;4880597;29;20470;-68
2023/09/08 00:55:49;;;;;;;6.57;2.78;;;19.30;99.90;;;;;;4880563;29;20068;-68
2023/09/08 00:58:14;;;;;;;3.90;2.28;;;19.30;99.90;;;;;;4880677;29;20028;-68
2023/09/08 01:00:40;;;;;;;4.78;2.28;;;19.20;99.90;;;;;;4879638;29;20039;-68
2023/09/08 01:03:06;;;;;;;4.30;2.25;;;19.10;99.90;;;;;;4896710;29;20037;-68
2023/09/08 01:05:32;;;;;;;4.55;2.80;;;19.10;99.90;;;;;;4879436;29;20458;-68
2023/09/08 01:08:00;;;;;;;7.18;2.90;;;19.10;99.90;;;;;;4859887;29;20389;-68
2023/09/08 01:10:26;;;;;;;5.85;2.70;;;19.10;99.90;;;;;;4854934;29;20414;-68
2023/09/08 01:12:52;;;;;;;8.95;2.22;;;19.10;99.90;;;;;;4864044;29;20421;-69
2023/09/08 01:15:17;;;;;;;5.50;3.17;;;19.10;99.90;;;;;;4877996;29;20112;-69
2023/09/08 01:17:43;;;;;;;7.20;2.75;;;19.10;99.90;;;;;;4877880;29;20049;-69
2023/09/08 01:20:21;;;;;;;6.45;3.30;;;19.10;99.90;;;;;;4877649;29;20653;-70
2023/09/08 01:23:18;;;;;;;10.23;3.05;;;19.10;99.90;;;;;;4862258;29;20032;-70
2023/09/08 01:25:57;;;;;;;4.88;2.70;;;19.10;99.90;;;;;;4879504;29;20040;-70
2023/09/08 01:28:23;;;;;;;6.25;2.42;;;19.00;99.90;;;;;;4862203;29;20093;-70
2023/09/08 01:30:50;;;;;;;5.78;3.00;;;18.70;99.90;;;;;;4846121;29;20561;-69
2023/09/08 01:33:16;;;;;;;4.45;2.30;;;18.90;99.90;;;;;;4861891;29;20121;-70
2023/09/08 01:35:43;;;;;;;5.65;2.83;;;18.90;99.90;;;;;;4846736;29;20049;-69
2023/09/08 01:38:09;;;;;;;5.18;3.00;;;19.00;99.90;;;;;;4861087;29;20111;-70
2023/09/08 01:40:35;;;;;;;4.30;2.55;;;18.90;99.90;;;;;;4878069;29;20025;-70
2023/09/08 01:43:01;;;;;;;5.05;2.10;;;18.90;99.90;;;;;;4877938;29;20029;-70
2023/09/08 01:45:27;;;;;;;6.43;3.10;;;18.90;99.90;;;;;;4877517;29;20084;-69
2023/09/08 01:47:52;;;;;;;4.85;2.85;;;18.80;99.90;;;;;;4877280;29;20451;-69
2023/09/08 01:50:22;;;;;;;6.10;3.40;;;18.80;99.90;;;;;;4860582;29;20040;-69
2023/09/08 01:52:48;;;;;;;5.72;2.65;;;18.90;99.90;;;;;;4877726;29;20033;-69
2023/09/08 01:55:16;;;;;;;5.88;3.50;;;18.80;99.90;;;;;;4869089;29;20025;-69
2023/09/08 01:57:42;;;;;;;4.32;3.08;;;18.60;99.90;;;;;;4861165;29;20029;-69
2023/09/08 02:00:11;;;;;;;7.60;3.00;;;18.60;99.90;;;;;;4877203;29;20442;-69
2023/09/08 02:02:37;;;;;;;6.90;2.70;;;18.60;99.90;;;;;;4877649;29;20041;-69
2023/09/08 02:05:03;;;;;;;8.80;3.30;;;18.50;99.90;;;;;;4845813;29;20506;-69
2023/09/08 02:07:29;;;;;;;6.85;2.92;;;18.50;99.90;;;;;;4845770;29;20037;-69
2023/09/08 02:09:55;;;;;;;6.97;2.90;;;18.40;99.90;;;;;;4868283;29;20056;-69
2023/09/08 02:12:21;;;;;;;5.45;3.03;;;18.40;99.90;;;;;;4877689;29;20443;-69
2023/09/08 02:14:47;;;;;;;7.18;3.67;;;18.40;99.90;;;;;;4881465;29;20036;-69
2023/09/08 02:17:13;;;;;;;6.40;3.55;;;18.30;99.90;;;;;;4881304;29;20029;-69
2023/09/08 02:19:38;;;;;;;5.03;2.80;;;18.40;99.90;;;;;;4887705;29;20088;-69
2023/09/08 02:22:04;;;;;;;5.15;2.92;;;18.30;99.90;;;;;;4882687;29;20135;-69
2023/09/08 02:24:30;;;;;;;11.52;3.28;;;18.40;99.90;;;;;;4881186;29;20055;-69
2023/09/08 02:26:56;;;;;;;6.95;3.13;;;18.40;99.90;;;;;;4848974;29;20185;-69
2023/09/08 02:29:22;;;;;;;8.57;3.13;;;18.50;99.90;;;;;;4864244;29;20517;-69
2023/09/08 02:31:48;;;;;;;7.20;3.42;;;18.40;99.90;;;;;;4880858;29;20078;-69
2023/09/08 02:34:14;;;;;;;5.95;2.88;;;18.50;99.90;;;;;;4860050;29;20036;-69
2023/09/08 02:36:40;;;;;;;11.02;4.25;;;18.50;99.90;;;;;;4887766;29;20033;-69
2023/09/08 02:39:07;;;;;;;7.55;3.97;;;18.50;99.90;;;;;;4865171;29;20025;-69
2023/09/08 02:41:33;;;;;;;5.93;3.13;;;18.40;99.90;;;;;;4863998;29;20161;-69
2023/09/08 02:43:59;;;;;;;5.53;3.17;;;18.40;99.90;;;;;;4864226;29;20044;-71
2023/09/08 02:46:25;;;;;;;6.60;3.00;;;18.50;99.90;;;;;;4881209;29;20025;-69
2023/09/08 02:48:52;;;;;;;7.53;3.20;;;18.50;99.90;;;;;;4864114;29;20704;-69
2023/09/08 02:51:18;;;;;;;6.63;3.25;;;18.50;99.90;;;;;;4879432;29;20029;-69
2023/09/08 02:53:44;;;;;;;7.75;3.60;;;18.50;99.90;;;;;;4880590;29;20033;-69
2023/09/08 02:56:10;;;;;;;9.30;3.80;;;18.40;99.90;;;;;;4864279;29;20073;-69
2023/09/08 02:58:35;;;;;;;4.85;3.38;;;18.30;99.90;;;;;;4880530;29;20031;-69
2023/09/08 03:01:16;;;;;;;8.85;3.30;;;18.20;99.90;;;;;;4863624;29;20030;-70
2023/09/08 03:03:42;;;;;;;5.55;3.05;;;18.10;99.90;;;;;;4863863;29;20089;-69
2023/09/08 03:06:09;;;;;;;9.45;3.67;;;18.10;99.90;;;;;;4863753;29;20473;-69
2023/09/08 03:08:36;;;;;;;6.95;3.70;;;17.80;99.90;;;;;;4869889;29;20103;-69
2023/09/08 03:11:04;;;;;;;9.82;2.95;;;17.90;99.90;;;;;;4881621;29;20115;-69
2023/09/08 03:13:30;;;;;;;8.98;3.85;;;17.90;99.90;;;;;;4863877;29;20096;-69
2023/09/08 03:15:56;;;;;;;8.00;4.25;;;17.90;99.90;;;;;;4848234;29;20045;-69
2023/09/08 03:18:23;;;;;;;10.35;4.13;;;17.90;99.90;;;;;;4880458;29;20426;-69
2023/09/08 03:20:50;;;;;;;5.95;3.20;;;17.90;99.90;;;;;;4863058;29;20545;-69
2023/09/08 03:23:16;;;;;;;6.57;2.80;;;17.80;99.90;;;;;;4848359;29;20052;-69
2023/09/08 03:25:43;;;;;;;7.53;3.47;;;17.80;99.90;;;;;;4879175;29;20033;-69
2023/09/08 03:28:09;;;;;;;6.47;3.13;;;17.80;99.90;;;;;;4863158;29;20056;-69
2023/09/08 03:30:35;;;;;;;11.10;3.70;;;17.70;99.90;;;;;;4862775;29;20490;-69
2023/09/08 03:33:01;;;;;;;10.18;3.90;;;17.40;99.90;;;;;;4879633;29;20056;-69
2023/09/08 03:35:26;;;;;;;9.45;3.97;;;17.50;99.90;;;;;;4880103;29;20028;-69
2023/09/08 03:37:52;;;;;;;7.68;3.80;;;17.40;99.90;;;;;;4863068;29;20040;-69
2023/09/08 03:40:18;;;;;;;6.35;3.22;;;17.40;99.90;;;;;;4862734;29;20029;-69
2023/09/08 03:42:43;;;;;;;8.77;4.22;;;17.50;99.90;;;;;;4879752;29;20033;-69
2023/09/08 03:45:09;;;;;;;8.38;3.65;;;17.50;99.90;;;;;;4879781;29;20049;-69
2023/09/08 03:47:35;;;;;;;6.55;3.80;;;17.70;99.90;;;;;;4887354;29;20085;-69
2023/09/08 03:50:01;;;;;;;8.75;3.60;;;17.70;99.90;;;;;;4879261;29;20765;-69
2023/09/08 03:52:27;;;;;;;6.35;3.40;;;17.70;99.90;;;;;;4879516;29;20064;-69
2023/09/08 03:54:52;;;;;;;8.80;3.35;;;17.80;99.90;;;;;;4862715;29;20072;-69
2023/09/08 03:57:18;;;;;;;6.80;3.15;;;17.70;99.90;;;;;;4879454;29;20032;-69
2023/09/08 03:59:44;;;;;;;10.25;3.63;;;17.70;99.90;;;;;;4862264;29;20502;-72
2023/09/08 04:02:10;;;;;;;10.38;3.83;;;17.70;99.90;;;;;;4879532;29;20048;-69
2023/09/08 04:04:35;;;;;;;9.05;3.88;;;17.70;99.90;;;;;;4862726;29;20032;-69
2023/09/08 04:07:01;;;;;;;7.28;3.33;;;17.70;99.90;;;;;;4879399;29;20073;-69
2023/09/08 04:09:28;;;;;;;10.23;4.13;;;17.70;99.90;;;;;;4862741;29;20033;-69
2023/09/08 04:11:54;;;;;;;13.32;3.47;;;17.60;99.90;;;;;;4862028;29;20474;-69
2023/09/08 04:14:23;;;;;;;7.85;3.28;;;17.60;99.90;;;;;;4862211;29;20068;-69
2023/09/08 04:16:49;;;;;;;6.97;2.78;;;17.70;99.90;;;;;;4879420;29;20442;-68
2023/09/08 04:19:15;;;;;;;13.23;4.28;;;17.60;99.90;;;;;;4862072;29;20116;-69
2023/09/08 04:21:41;;;;;;;8.45;3.83;;;17.60;99.90;;;;;;4878756;29;20041;-69
2023/09/08 04:24:10;;;;;;;10.35;3.80;;;17.40;99.90;;;;;;4878838;29;20492;-69
2023/09/08 04:26:36;;;;;;;6.18;3.85;;;17.30;99.90;;;;;;4879033;29;20036;-69
2023/09/08 04:29:02;;;;;;;7.95;3.97;;;17.20;99.90;;;;;;4862412;29;20071;-69
2023/09/08 04:31:27;;;;;;;11.82;4.60;;;17.20;99.90;;;;;;4861612;29;20462;-69
2023/09/08 04:33:54;;;;;;;10.30;4.28;;;17.20;99.90;;;;;;4862331;29;20573;-69
2023/09/08 04:36:19;;;;;;;6.07;3.10;;;17.20;99.90;;;;;;4872974;29;20060;-69
2023/09/08 04:38:45;;;;;;;6.97;3.55;;;17.20;99.90;;;;;;4882466;29;20052;-69
2023/09/08 04:41:11;;;;;;;8.45;4.30;;;17.10;99.90;;;;;;4878338;29;20029;-69
2023/09/08 04:43:37;;;;;;;6.30;3.13;;;17.00;99.90;;;;;;4878843;29;20043;-69
2023/09/08 04:46:03;;;;;;;6.43;3.70;;;17.10;99.90;;;;;;4861752;29;20048;-70
2023/09/08 04:48:30;;;;;;;6.85;3.63;;;17.10;99.90;;;;;;4878724;29;20059;-69
2023/09/08 04:50:57;;;;;;;7.65;4.05;;;17.10;99.90;;;;;;4878216;29;20117;-69
2023/09/08 04:53:22;;;;;;;8.60;4.47;;;17.10;99.90;;;;;;4878331;29;20022;-70
2023/09/08 04:55:48;;;;;;;7.68;4.20;;;17.10;99.90;;;;;;4878362;29;20040;-69
2023/09/08 04:58:14;;;;;;;8.20;3.92;;;17.10;99.90;;;;;;4878455;29;20040;-69
2023/09/08 05:00:40;;;;;;;5.97;3.63;;;17.10;99.90;;;;;;4877870;29;20435;-69
2023/09/08 05:03:06;;;;;;;13.95;3.47;;;17.20;99.90;;;;;;4878322;29;20065;-69
2023/09/08 05:05:31;;;;;;;7.25;4.05;;;17.20;99.90;;;;;;4878211;29;20033;-69
2023/09/08 05:07:57;;;;;;;9.68;3.67;;;17.20;99.90;;;;;;4878078;29;20110;-69
2023/09/08 05:10:24;;;;;;;5.93;3.85;;;17.20;99.90;;;;;;4877649;29;20045;-69
2023/09/08 05:12:51;;;;;;;6.80;3.65;;;17.20;99.90;;;;;;4877982;29;20084;-69
2023/09/08 05:15:17;;;;;;;7.68;3.90;;;17.20;99.90;;;;;;4878095;29;20040;-69
2023/09/08 05:17:44;;;;;;;9.80;3.83;;;17.20;99.90;;;;;;4861307;29;20033;-69
2023/09/08 05:20:10;;;;;;;6.88;3.70;;;17.20;99.90;;;;;;4877485;29;20029;-69
2023/09/08 05:22:36;;;;;;;7.47;4.13;;;17.20;99.90;;;;;;4878131;29;20048;-70
2023/09/08 05:25:03;;;;;;;6.38;3.47;;;17.20;99.90;;;;;;4861132;29;20553;-69
2023/09/08 05:27:29;;;;;;;7.22;3.60;;;17.20;99.90;;;;;;4878122;29;20089;-69
2023/09/08 05:29:54;;;;;;;7.97;4.40;;;17.30;99.90;;;;;;4877578;29;20037;-69
2023/09/08 05:32:20;;;;;;;6.65;3.67;;;17.30;99.90;;;;;;4861100;29;20585;-69
2023/09/08 05:34:46;;;;;;;7.05;4.03;;;17.30;99.90;;;;;;4861019;29;20471;-69
2023/09/08 05:37:12;;;;;;;7.43;3.95;;;17.30;99.90;;;;;;4860945;29;20488;-69
2023/09/08 05:39:37;;;;;;;4.97;3.50;;;17.40;99.90;;;;;;4877527;29;20040;-69
2023/09/08 05:42:04;;;;;;;9.32;3.38;;;17.40;99.90;;;;;;4845431;29;20029;-69
2023/09/08 05:44:29;;;;;;;9.45;3.05;;;17.40;99.90;;;;;;4878017;29;20028;-69
2023/09/08 05:46:55;;;;;;;7.32;3.83;;;17.40;99.90;;;;;;4877369;29;20088;-69
2023/09/08 05:49:21;;;;;;;9.15;4.90;;;17.40;99.90;;;;;;4877449;29;20554;-69
2023/09/08 05:51:46;;;;;;;9.70;3.75;;;17.40;99.90;;;;;;4877218;29;20025;-69
2023/09/08 05:54:12;;;;;;;5.13;3.65;;;17.40;99.90;;;;;;4877333;29;20028;-69
2023/09/08 05:56:38;;;;;;;10.00;4.60;;;17.40;99.90;;;;;;4868766;29;20073;-69
2023/09/08 05:59:04;;;;;;;6.20;3.47;;;17.50;99.90;;;;;;4860811;29;20037;-69
2023/09/08 06:01:31;;;;;;;7.25;3.92;;;17.50;99.90;;;;;;4860293;29;20098;-69
2023/09/08 06:03:56;;;;;;;8.10;4.20;;;17.60;99.90;;;;;;4877675;29;20378;-68
2023/09/08 06:06:23;;;;;;;8.88;4.20;;;17.60;99.90;;;;;;4860978;29;20037;-68
2023/09/08 06:08:48;;;;;;;9.40;4.63;;;17.60;99.90;;;;;;4860702;29;20029;-68
2023/09/08 06:11:14;;;;;;;6.80;3.53;;;17.40;99.90;;;;;;4877097;29;20047;-68
2023/09/08 06:13:40;;;;;;;6.72;4.22;;;17.50;99.90;;;;;;4877405;29;20037;-69
2023/09/08 06:16:06;;;;;;;8.48;3.17;;;17.60;99.90;;;;;;4877566;29;20055;-69
2023/09/08 06:18:32;;;;;;;7.43;3.38;;;17.60;99.90;;;;;;4877691;29;20470;-69
2023/09/08 06:20:58;;;;;;;6.70;3.70;;;17.70;99.90;;;;;;4877411;29;20378;-69
2023/09/08 06:23:24;;;;;;;9.38;4.15;;;17.70;99.90;;;;;;4861000;29;20084;-69
2023/09/08 06:25:50;;;;;;;6.90;3.53;;;17.70;99.90;;;;;;4877982;29;20044;-69
2023/09/08 06:28:15;;;;;;;8.02;3.95;;;17.90;99.90;;;;;;4877838;29;20056;-69
2023/09/08 06:30:41;;;;;;;8.23;3.60;;;17.90;99.90;;;;;;4860667;29;20051;-68
2023/09/08 06:33:10;;;;;;;7.85;3.95;;;18.00;99.90;;;;;;4860833;29;20041;-68
2023/09/08 06:35:36;;;;;;;5.38;3.42;;;18.10;99.90;;;;;;4877692;29;20032;-69
2023/09/08 06:38:02;;;;;;;11.00;4.05;;;18.20;99.90;;;;;;4877665;29;20037;-68
2023/09/08 06:40:30;;;;;;;7.75;3.97;;;18.30;99.90;;;;;;4877222;29;20025;-68
2023/09/08 06:42:56;;;;;;;8.90;3.80;;;18.40;99.90;;;;;;4877433;29;20033;-68
2023/09/08 06:45:22;;;;;;;6.70;3.30;;;18.50;99.90;;;;;;4860806;29;20033;-69
2023/09/08 06:47:50;;;;;;;8.98;3.65;;;18.50;99.90;;;;;;4877618;29;20036;-69
2023/09/08 06:50:15;;;;;;;13.68;3.70;;;18.60;99.90;;;;;;4877296;29;20178;-68
2023/09/08 06:52:41;;;;;;;6.80;4.03;;;18.30;99.90;;;;;;4877306;29;20112;-69
2023/09/08 06:55:07;;;;;;;6.40;3.35;;;18.50;99.90;;;;;;4877343;29;20453;-69
2023/09/08 06:57:33;;;;;;;6.45;3.53;;;18.60;99.90;;;;;;4877566;29;20033;-69
2023/09/08 06:59:59;;;;;;;6.05;3.53;;;18.70;99.90;;;;;;4861298;29;20478;-69
2023/09/08 07:02:24;;;;;;;6.60;3.67;;;18.70;99.90;;;;;;4880805;29;20036;-70
2023/09/08 07:04:50;;;;;;;6.28;3.35;;;18.80;99.90;;;;;;4880516;29;20045;-69
2023/09/08 07:07:18;;;;;;;7.70;3.47;;;18.80;99.90;;;;;;4880684;29;20085;-68
2023/09/08 07:09:43;;;;;;;8.85;3.03;;;18.80;99.90;;;;;;4863502;29;20398;-68
2023/09/08 07:12:09;;;;;;;6.05;3.35;;;19.00;99.90;;;;;;4880306;29;20113;-68
2023/09/08 07:14:35;;;;;;;7.68;4.07;;;19.10;99.90;;;;;;4880335;29;20039;-69
2023/09/08 07:17:00;;;;;;;8.43;3.28;;;19.10;99.90;;;;;;4880350;29;20041;-68
2023/09/08 07:19:27;;;;;;;6.07;3.53;;;19.20;99.90;;;;;;4863474;29;20025;-68
2023/09/08 07:21:53;;;;;;;7.35;4.18;;;19.30;99.90;;;;;;4880056;29;20032;-69
2023/09/08 07:24:18;;;;;;;6.20;3.15;;;19.40;99.90;;;;;;4880160;29;20033;-68
2023/09/08 07:26:44;;;;;;;6.38;3.45;;;19.60;99.90;;;;;;4880307;29;20123;-69
2023/09/08 07:29:11;;;;;;;12.10;4.20;;;19.80;99.90;;;;;;4880282;29;20076;-69
2023/09/08 07:31:38;;;;;;;7.85;3.85;;;19.90;99.90;;;;;;4879941;29;20033;-69
2023/09/08 07:34:04;;;;;;;6.93;3.83;;;20.00;99.90;;;;;;4880279;29;20236;-69
2023/09/08 07:36:29;;;;;;;11.85;3.58;;;20.10;99.90;;;;;;4863535;29;20123;-69
2023/09/08 07:38:55;;;;;;;7.63;3.63;;;20.10;99.90;;;;;;4863477;29;20048;-69
2023/09/08 07:41:21;;;;;;;7.97;3.70;;;20.30;99.90;;;;;;4879977;29;20056;-70
2023/09/08 07:43:47;;;;;;;6.15;2.85;;;20.30;99.90;;;;;;4863259;29;20078;-68
2023/09/08 07:46:12;;;;;;;7.32;3.47;;;20.50;99.90;;;;;;4879748;29;20480;-68
2023/09/08 07:48:38;;;;;;;5.40;2.58;;;20.60;99.90;;;;;;4879798;29;20041;-68
2023/09/08 07:51:04;;;;;;;8.50;3.30;;;20.70;99.90;;;;;;4862744;29;20036;-68
2023/09/08 07:53:29;;;;;;;9.85;3.15;;;20.70;99.90;;;;;;4879653;29;20029;-68
2023/09/08 07:55:55;;;;;;;8.48;3.15;;;20.80;99.90;;;;;;4879930;29;20032;-68
2023/09/08 07:58:22;;;;;;;5.35;2.33;;;20.90;99.90;;;;;;4879711;29;20441;-68
2023/09/08 08:00:48;;;;;;;5.30;2.50;;;21.00;99.90;;;;;;4862865;29;20152;-68
2023/09/08 08:03:13;;;;;;;11.27;3.22;;;21.00;99.90;;;;;;4862681;29;20049;-69
2023/09/08 08:05:39;;;;;;;6.05;2.67;;;21.20;99.90;;;;;;4879423;29;20393;-69
2023/09/08 08:08:06;;;;;;;8.63;3.15;;;21.30;99.90;;;;;;4879420;29;20061;-69
2023/09/08 08:10:32;;;;;;;4.05;2.33;;;21.40;99.90;;;;;;4862243;29;20033;-69
2023/09/08 08:12:58;;;;;;;5.03;2.53;;;21.50;99.90;;;;;;4862719;29;20089;-69
2023/09/08 08:15:39;;;;;;;7.35;3.05;;;21.60;99.90;;;;;;4879357;29;20444;-69
2023/09/08 08:18:06;;;;;;;5.32;2.65;;;21.70;99.90;;;;;;4879410;29;20481;-69
2023/09/08 08:20:35;;;;;;;5.90;2.70;;;21.80;99.90;;;;;;4862392;29;20036;-69
2023/09/08 08:23:07;;;;;;;7.88;2.30;;;21.90;99.90;;;;;;4863038;29;20490;-69
2023/09/08 08:25:33;;;;;;;5.28;2.88;;;22.00;99.90;;;;;;4879238;29;20037;-69
2023/09/08 08:28:00;;;;;;;5.63;2.70;;;22.10;99.90;;;;;;4879393;29;20047;-69
2023/09/08 08:30:27;;;;;;;8.85;2.50;;;22.00;99.90;;;;;;4862283;29;20044;-69
2023/09/08 08:32:53;;;;;;;5.60;2.75;;;22.10;99.90;;;;;;4862453;29;20033;-69
2023/09/08 08:35:20;;;;;;;5.63;2.88;;;22.30;99.90;;;;;;4862540;29;20029;-69
2023/09/08 08:37:45;;;;;;;6.10;2.20;;;22.50;99.90;;;;;;4862202;29;20025;-69
2023/09/08 08:40:12;;;;;;;6.65;2.67;;;22.60;99.90;;;;;;4861926;29;20037;-69
2023/09/08 08:42:39;;;;;;;5.80;2.65;;;22.60;99.90;;;;;;4862231;29;20060;-69
2023/09/08 08:45:05;;;;;;;4.82;2.72;;;22.80;99.90;;;;;;4878905;29;20080;-69
2023/09/08 08:47:31;;;;;;;3.85;2.55;;;22.80;99.90;;;;;;4862330;29;20033;-69
2023/09/08 08:49:59;;;;;;;8.00;2.67;;;22.90;99.90;;;;;;4878556;29;20048;-69
2023/09/08 08:52:29;;;;;;;5.30;2.63;;;23.10;99.90;;;;;;4862063;29;20029;-69
2023/09/08 08:54:56;;;;;;;5.00;2.70;;;23.30;99.90;;;;;;4861960;29;20022;-69
2023/09/08 08:57:22;;;;;;;5.45;2.40;;;23.40;99.90;;;;;;4862006;29;20193;-69
2023/09/08 08:59:53;;;;;;;5.68;2.83;;;23.50;99.90;;;;;;4861587;29;20028;-70
2023/09/08 09:02:21;;;;;;;7.07;2.90;;;23.60;99.90;;;;;;4861964;29;20033;-69
2023/09/08 09:04:47;;;;;;;5.50;3.08;;;23.60;99.90;;;;;;4861938;29;20029;-69
2023/09/08 09:07:13;;;;;;;4.90;2.55;;;23.50;99.90;;;;;;4861738;29;20021;-69
2023/09/08 09:09:40;;;;;;;6.45;2.80;;;23.60;99.90;;;;;;4861872;29;20048;-69
2023/09/08 09:12:06;;;;;;;5.13;2.40;;;23.50;99.90;;;;;;4878390;29;20033;-69
2023/09/08 09:14:33;;;;;;;5.90;2.53;;;23.70;99.90;;;;;;4878205;29;20041;-69
2023/09/08 09:17:01;;;;;;;5.57;2.47;;;23.90;99.90;;;;;;4876870;29;20379;-69
2023/09/08 09:19:28;;;;;;;3.50;1.98;;;24.10;99.90;;;;;;4878064;29;20120;-69
2023/09/08 09:21:55;;;;;;;7.32;2.58;;;24.20;99.90;;;;;;4861337;29;20450;-69
2023/09/08 09:24:46;;;;;;;9.45;2.50;;;24.30;99.90;;;;;;4877971;29;20131;-68
2023/09/08 09:27:12;;;;;;;5.20;2.83;;;24.30;99.90;;;;;;4878225;29;20033;-69
2023/09/08 09:29:49;;;;;;;7.28;2.95;;;24.50;99.90;;;;;;4877827;29;20089;-69
2023/09/08 09:32:22;;;;;;;7.20;2.67;;;24.60;99.90;;;;;;4861184;29;20037;-68
2023/09/08 09:34:53;;;;;;;4.65;2.30;;;24.70;99.90;;;;;;4862207;29;20028;-68
2023/09/08 09:37:19;;;;;;;5.80;2.50;;;24.70;99.90;;;;;;4861778;29;20120;-68
2023/09/08 09:39:50;;;;;;;7.97;3.15;;;24.90;99.90;;;;;;4877716;29;20425;-69
2023/09/08 09:42:17;;;;;;;5.13;2.42;;;25.10;99.90;;;;;;4861639;29;20032;-69
2023/09/08 09:44:43;;;;;;;7.50;2.78;;;25.30;99.90;;;;;;4863488;29;20036;-69
2023/09/08 09:47:09;;;;;;;8.45;2.55;;;25.40;99.90;;;;;;4880158;29;20044;-69
2023/09/08 09:49:47;;;;;;;5.60;2.50;;;24.90;99.80;;;;;;4879866;29;20119;-69
2023/09/08 09:52:20;;;;;;;3.80;2.10;;;25.10;99.90;;;;;;4880093;29;20036;-70
2023/09/08 09:54:45;;;;;;;4.47;2.70;;;25.30;99.90;;;;;;4880562;29;20029;-70
2023/09/08 09:57:14;;;;;;;5.18;3.08;;;25.40;99.90;;;;;;4879794;29;20028;-69
2023/09/08 09:59:43;;;;;;;5.10;2.35;;;25.50;99.90;;;;;;4863906;29;20036;-69
2023/09/08 10:02:14;;;;;;;5.72;2.55;;;25.10;99.90;;;;;;4896321;29;20075;-69
2023/09/08 10:04:46;;;;;;;5.03;2.60;;;25.40;99.90;;;;;;4879992;29;20040;-69
2023/09/08 10:07:11;;;;;;;5.18;2.55;;;25.30;99.90;;;;;;4896625;29;20084;-69
2023/09/08 10:09:37;;;;;;;5.30;2.35;;;25.60;99.90;;;;;;4896627;29;20037;-69
2023/09/08 10:12:05;;;;;;;4.88;2.85;;;25.70;99.90;;;;;;4896564;29;20037;-69
2023/09/08 10:14:35;;;;;;;4.53;1.98;;;25.50;99.30;;;;;;4879815;29;20461;-68
2023/09/08 10:17:02;;;;;;;4.90;2.10;;;25.90;99.40;;;;;;4864246;29;20036;-68
2023/09/08 10:19:28;;;;;;;8.65;2.45;;;26.00;99.20;;;;;;4879578;29;20276;-69
2023/09/08 10:22:03;;;;;;;3.97;1.98;;;26.20;98.20;;;;;;4879651;29;20051;-68
2023/09/08 10:24:38;;;;;;;5.28;2.92;;;26.60;98.80;;;;;;4880301;29;20032;-68
2023/09/08 10:27:11;;;;;;;3.17;1.83;;;26.90;98.40;;;;;;4880149;29;20047;-69
2023/09/08 10:29:38;;;;;;;3.70;1.80;;;26.90;98.20;;;;;;4896254;29;20068;-69
2023/09/08 10:32:07;;;;;;;4.20;2.22;;;27.30;98.20;;;;;;4896187;29;20033;-68
2023/09/08 10:34:36;;;;;;;8.05;2.15;;;27.50;97.50;;;;;;4881400;29;20036;-69
2023/09/08 10:37:03;;;;;;;5.60;2.92;;;27.30;96.80;;;;;;4883127;29;20405;-69
2023/09/08 10:39:38;;;;;;;4.50;1.98;;;27.20;97.40;;;;;;4883013;29;20021;-69
2023/09/08 10:42:16;;;;;;;6.00;2.13;;;27.20;97.20;;;;;;4883379;29;20032;-69
2023/09/08 10:44:49;;;;;;;5.95;2.30;;;27.30;96.60;;;;;;4899782;29;20060;-69
2023/09/08 10:47:25;;;;;;;6.93;2.08;;;27.70;95.90;;;;;;4899843;29;20033;-69
2023/09/08 10:49:58;;;;;;;5.32;2.42;;;27.90;95.80;;;;;;4899220;29;20485;-69
2023/09/08 10:52:24;;;;;;;4.63;2.30;;;28.30;95.80;;;;;;4867903;29;20028;-69
2023/09/08 10:54:53;;;;;;;4.80;2.10;;;28.10;96.00;;;;;;4867174;29;20111;-69
2023/09/08 10:57:25;;;;;;;5.13;1.77;;;28.10;96.20;;;;;;4882865;29;20060;-69
2023/09/08 10:59:59;;;;;;;7.45;2.35;;;27.80;95.90;;;;;;4882573;29;20068;-69
2023/09/08 11:02:38;;;;;;;3.60;1.90;;;28.00;95.40;;;;;;4899367;29;20385;-68
2023/09/08 11:05:13;;;;;;;6.68;2.92;;;28.30;96.10;;;;;;4899161;29;20032;-69
2023/09/08 11:07:41;;;;;;;4.70;2.42;;;28.60;95.20;;;;;;4899149;29;20107;-69
2023/09/08 11:10:08;;;;;;;8.32;2.50;;;28.80;94.60;;;;;;4899233;29;20044;-68
2023/09/08 11:12:34;;;;;;;4.70;2.20;;;28.70;95.10;;;;;;4882400;29;20036;-68
2023/09/08 11:15:07;;;;;;;2.97;1.90;;;29.00;94.50;;;;;;4899147;29;20478;-69
2023/09/08 11:17:35;;;;;;;4.90;2.08;;;29.00;94.30;;;;;;4883037;29;20381;-69
2023/09/08 11:20:09;;;;;;;8.52;3.05;;;29.20;93.60;;;;;;4881972;29;20033;-69
2023/09/08 11:22:39;;;;;;;3.53;2.03;;;29.40;94.10;;;;;;4899206;29;20036;-69
2023/09/08 11:25:08;;;;;;;3.17;1.60;;;29.40;93.30;;;;;;4882143;29;20063;-69
2023/09/08 11:27:34;;;;;;;5.90;2.40;;;29.20;92.60;;;;;;4882161;29;20404;-69
2023/09/08 11:30:00;;;;;;;5.35;2.35;;;29.40;93.30;;;;;;4881940;29;20032;-69
2023/09/08 11:32:33;;;;;;;5.00;2.63;;;29.70;92.50;;;;;;4882012;29;20047;-69
2023/09/08 11:35:09;;;;;;;5.45;2.13;;;29.30;92.80;;;;;;4896919;29;20059;-70
2023/09/08 11:37:42;;;;;;;4.00;2.22;;;29.70;92.90;;;;;;4880186;29;20579;-69
2023/09/08 11:40:11;;;;;;;3.33;1.83;;;29.70;92.70;;;;;;4879775;29;20108;-69
2023/09/08 11:42:43;;;;;;;4.60;2.58;;;29.70;92.30;;;;;;4880105;29;20033;-68
2023/09/08 11:45:17;;;;;;;4.47;2.20;;;29.60;92.10;;;;;;4863230;29;20047;-68
2023/09/08 11:47:43;;;;;;;4.82;2.20;;;30.20;91.80;;;;;;4863013;29;20068;-69
2023/09/08 11:50:15;;;;;;;6.93;2.03;;;30.70;91.50;;;;;;4862649;29;20047;-69
2023/09/08 11:53:00;;;;;;;3.88;2.20;;;30.10;92.60;;;;;;4880022;29;20033;-68
2023/09/08 11:55:26;;;;;;;3.53;2.05;;;30.90;92.60;;;;;;4879620;29;20033;-68
2023/09/08 11:58:00;;;;;;;7.85;2.55;;;31.50;90.90;;;;;;4863023;29;20040;-68
2023/09/08 12:00:28;;;;;;;6.35;2.78;;;31.30;91.10;;;;;;4863298;29;20088;-68
2023/09/08 12:02:54;;;;;;;3.60;2.15;;;31.70;90.90;;;;;;4863147;29;20033;-69
2023/09/08 12:05:27;;;;;;;5.10;1.80;;;31.80;89.90;;;;;;4879483;29;20068;-68
2023/09/08 12:07:56;;;;;;;4.95;2.13;;;30.60;88.20;;;;;;4879703;29;20062;-68
2023/09/08 12:10:24;;;;;;;3.50;1.80;;;30.80;90.60;;;;;;4879084;29;20029;-69
2023/09/08 12:12:58;;;;;;;3.67;1.88;;;31.80;90.60;;;;;;4862864;29;20029;-69
2023/09/08 12:15:50;;;;;;;4.97;1.88;;;31.40;89.40;;;;;;4879442;29;20180;-69
2023/09/08 12:18:15;;;;;;;3.95;2.22;;;31.40;88.70;;;;;;4859908;29;20470;-68
2023/09/08 12:20:42;;;;;;;5.45;2.53;;;31.60;89.20;;;;;;4878750;29;20157;-69
2023/09/08 12:23:20;;;;;;;4.00;1.83;;;31.60;88.90;;;;;;4879170;29;20048;-69
2023/09/08 12:25:51;;;;;;;3.22;1.83;;;32.00;86.90;;;;;;4862768;29;20064;-68
2023/09/08 12:28:21;;;;;;;3.55;1.90;;;31.60;87.20;;;;;;4863082;29;20037;-68
2023/09/08 12:30:48;;;;;;;4.10;1.92;;;32.30;85.50;;;;;;4878899;29;20041;-69
2023/09/08 12:33:19;;;;;;;3.83;1.58;;;34.60;82.60;;;;;;4862147;29;20079;-68
2023/09/08 12:35:50;;;;;;;2.30;1.75;;;33.70;80.50;;;;;;4878981;29;20025;-68
2023/09/08 12:38:16;;;;;;;2.92;1.58;;;33.80;78.10;;;;;;4862846;29;20033;-68
2023/09/08 12:40:42;;;;;;;2.72;1.73;;;33.60;74.70;;;;;;4878615;29;20032;-68
2023/09/08 12:43:08;;;;;;;4.68;2.15;;;33.20;77.80;;;;;;4878653;29;20044;-69
2023/09/08 12:45:33;;;;;;;5.38;1.63;;;32.50;77.40;;;;;;4878855;29;20785;-69
2023/09/08 12:48:02;;;;;;;4.32;1.67;;;32.50;77.30;;;;;;4862177;29;20115;-69